sensor_id;sensor_type;location;lat;lon;timestamp;temperature;humidity
16732;DHT22;8484;50.904;9.192;2023-08-06T00:01:15;14.20;99.90
16732;DHT22;8484;50.904;9.192;2023-08-06T00:03:44;14.20;99.90
16732;DHT22;8484;50.904;9.192;2023-08-06T00:06:11;14.30;99.90
16732;DHT22;8484;50.904;9.192;2023-08-06T00:08:38;14.30;99.90
16732;DHT22;8484;50.904;9.192;2023-08-06T00:11:06;14.40;99.90
16732;DHT22;8484;50.904;9.192;2023-08-06T00:13:33;14.40;99.90
16732;DHT22;8484;50.904;9.192;2023-08-06T00:16:09;14.30;99.90
16732;DHT22;8484;50.904;9.192;2023-08-06T00:18:45;14.30;99.90
16732;DHT22;8484;50.904;9.192;2023-08-06T00:21:12;14.40;99.90
16732;DHT22;8484;50.904;9.192;2023-08-06T00:23:39;14.40;99.90
16732;DHT22;8484;50.904;9.192;2023-08-06T00:26:07;14.50;99.90
16732;DHT22;8484;50.904;9.192;2023-08-06T00:28:34;14.50;99.90
16732;DHT22;8484;50.904;9.192;2023-08-06T00:31:01;14.50;99.90
16732;DHT22;8484;50.904;9.192;2023-08-06T00:33:28;14.50;99.90
16732;DHT22;8484;50.904;9.192;2023-08-06T00:35:55;14.60;99.90
16732;DHT22;8484;50.904;9.192;2023-08-06T00:38:21;14.60;99.90
16732;DHT22;8484;50.904;9.192;2023-08-06T00:40:48;14.60;99.90
16732;DHT22;8484;50.904;9.192;2023-08-06T00:43:16;14.60;99.90
16732;DHT22;8484;50.904;9.192;2023-08-06T00:45:44;14.60;99.90
16732;DHT22;8484;50.904;9.192;2023-08-06T00:48:11;14.70;99.90
16732;DHT22;8484;50.904;9.192;2023-08-06T00:50:38;14.60;99.90
16732;DHT22;8484;50.904;9.192;2023-08-06T00:53:04;14.50;99.90
16732;DHT22;8484;50.904;9.192;2023-08-06T00:55:32;14.50;99.90
16732;DHT22;8484;50.904;9.192;2023-08-06T00:58:00;14.50;99.90
16732;DHT22;8484;50.904;9.192;2023-08-06T01:00:28;14.50;99.90
16732;DHT22;8484;50.904;9.192;2023-08-06T01:02:55;14.70;99.90
16732;DHT22;8484;50.904;9.192;2023-08-06T01:05:23;14.80;99.90
16732;DHT22;8484;50.904;9.192;2023-08-06T01:08:02;14.90;99.90
16732;DHT22;8484;50.904;9.192;2023-08-06T01:10:40;14.80;99.90
16732;DHT22;8484;50.904;9.192;2023-08-06T01:13:19;14.70;99.90
16732;DHT22;8484;50.904;9.192;2023-08-06T01:15:55;14.70;99.90
16732;DHT22;8484;50.904;9.192;2023-08-06T01:18:22;14.80;99.90
16732;DHT22;8484;50.904;9.192;2023-08-06T01:20:50;14.70;99.90
16732;DHT22;8484;50.904;9.192;2023-08-06T01:23:18;14.50;99.90
16732;DHT22;8484;50.904;9.192;2023-08-06T01:25:50;14.60;99.90
16732;DHT22;8484;50.904;9.192;2023-08-06T01:28:25;14.70;99.90
16732;DHT22;8484;50.904;9.192;2023-08-06T01:30:55;14.70;99.90
16732;DHT22;8484;50.904;9.192;2023-08-06T01:33:26;14.60;99.90
16732;DHT22;8484;50.904;9.192;2023-08-06T01:35:55;14.60;99.90
16732;DHT22;8484;50.904;9.192;2023-08-06T01:38:24;14.50;99.90
16732;DHT22;8484;50.904;9.192;2023-08-06T01:40:53;14.50;99.90
16732;DHT22;8484;50.904;9.192;2023-08-06T01:43:20;14.50;99.90
16732;DHT22;8484;50.904;9.192;2023-08-06T01:45:47;14.30;99.90
16732;DHT22;8484;50.904;9.192;2023-08-06T01:48:14;14.10;99.90
16732;DHT22;8484;50.904;9.192;2023-08-06T01:50:41;14.10;99.90
16732;DHT22;8484;50.904;9.192;2023-08-06T01:53:10;14.00;99.90
16732;DHT22;8484;50.904;9.192;2023-08-06T01:55:37;14.00;99.90
16732;DHT22;8484;50.904;9.192;2023-08-06T01:58:04;14.00;99.90
16732;DHT22;8484;50.904;9.192;2023-08-06T02:00:31;14.00;99.90
16732;DHT22;8484;50.904;9.192;2023-08-06T02:02:58;14.00;99.90
16732;DHT22;8484;50.904;9.192;2023-08-06T02:05:25;13.90;99.90
16732;DHT22;8484;50.904;9.192;2023-08-06T02:07:52;13.90;99.90
16732;DHT22;8484;50.904;9.192;2023-08-06T02:10:20;14.00;99.90
16732;DHT22;8484;50.904;9.192;2023-08-06T02:12:47;13.80;99.90
16732;DHT22;8484;50.904;9.192;2023-08-06T02:15:14;13.80;99.90
16732;DHT22;8484;50.904;9.192;2023-08-06T02:17:41;13.80;99.90
16732;DHT22;8484;50.904;9.192;2023-08-06T02:20:09;13.70;99.90
16732;DHT22;8484;50.904;9.192;2023-08-06T02:22:36;13.80;99.90
16732;DHT22;8484;50.904;9.192;2023-08-06T02:25:03;13.70;99.90
16732;DHT22;8484;50.904;9.192;2023-08-06T02:27:31;13.80;99.90
16732;DHT22;8484;50.904;9.192;2023-08-06T02:30:01;13.80;99.90
16732;DHT22;8484;50.904;9.192;2023-08-06T02:32:29;13.90;99.90
16732;DHT22;8484;50.904;9.192;2023-08-06T02:34:57;13.80;99.90
16732;DHT22;8484;50.904;9.192;2023-08-06T02:37:24;14.00;99.90
16732;DHT22;8484;50.904;9.192;2023-08-06T02:39:51;14.00;99.90
16732;DHT22;8484;50.904;9.192;2023-08-06T02:42:17;14.00;99.90
16732;DHT22;8484;50.904;9.192;2023-08-06T02:44:46;14.00;99.90
16732;DHT22;8484;50.904;9.192;2023-08-06T02:47:13;13.90;99.90
16732;DHT22;8484;50.904;9.192;2023-08-06T02:49:40;13.80;99.90
16732;DHT22;8484;50.904;9.192;2023-08-06T02:52:07;13.80;99.90
16732;DHT22;8484;50.904;9.192;2023-08-06T02:54:34;13.60;99.90
16732;DHT22;8484;50.904;9.192;2023-08-06T02:57:01;13.60;99.90
16732;DHT22;8484;50.904;9.192;2023-08-06T02:59:28;13.60;99.90
16732;DHT22;8484;50.904;9.192;2023-08-06T03:01:56;13.50;99.90
16732;DHT22;8484;50.904;9.192;2023-08-06T03:04:23;13.60;99.90
16732;DHT22;8484;50.904;9.192;2023-08-06T03:06:50;13.50;99.90
16732;DHT22;8484;50.904;9.192;2023-08-06T03:09:17;13.40;99.90
16732;DHT22;8484;50.904;9.192;2023-08-06T03:11:44;13.30;99.90
16732;DHT22;8484;50.904;9.192;2023-08-06T03:14:11;13.40;99.90
16732;DHT22;8484;50.904;9.192;2023-08-06T03:16:38;13.40;99.90
16732;DHT22;8484;50.904;9.192;2023-08-06T03:19:11;13.50;99.90
16732;DHT22;8484;50.904;9.192;2023-08-06T03:21:38;13.50;99.90
16732;DHT22;8484;50.904;9.192;2023-08-06T03:24:04;13.30;99.90
16732;DHT22;8484;50.904;9.192;2023-08-06T03:26:34;13.30;99.90
16732;DHT22;8484;50.904;9.192;2023-08-06T03:29:01;13.30;99.90
16732;DHT22;8484;50.904;9.192;2023-08-06T03:31:28;13.30;99.90
16732;DHT22;8484;50.904;9.192;2023-08-06T03:33:55;13.30;99.90
16732;DHT22;8484;50.904;9.192;2023-08-06T03:36:23;13.20;99.90
16732;DHT22;8484;50.904;9.192;2023-08-06T03:38:50;13.20;99.90
16732;DHT22;8484;50.904;9.192;2023-08-06T03:41:17;13.20;99.90
16732;DHT22;8484;50.904;9.192;2023-08-06T03:43:44;13.20;99.90
16732;DHT22;8484;50.904;9.192;2023-08-06T03:46:11;13.00;99.90
16732;DHT22;8484;50.904;9.192;2023-08-06T03:48:38;13.00;99.90
16732;DHT22;8484;50.904;9.192;2023-08-06T03:51:04;13.10;99.90
16732;DHT22;8484;50.904;9.192;2023-08-06T03:53:33;13.00;99.90
16732;DHT22;8484;50.904;9.192;2023-08-06T03:56:00;12.90;99.90
16732;DHT22;8484;50.904;9.192;2023-08-06T03:58:26;12.70;99.90
16732;DHT22;8484;50.904;9.192;2023-08-06T04:00:58;12.60;99.90
16732;DHT22;8484;50.904;9.192;2023-08-06T04:03:25;12.60;99.90
16732;DHT22;8484;50.904;9.192;2023-08-06T04:05:52;12.50;99.90
16732;DHT22;8484;50.904;9.192;2023-08-06T04:08:19;12.50;99.90
16732;DHT22;8484;50.904;9.192;2023-08-06T04:10:51;12.60;99.90
16732;DHT22;8484;50.904;9.192;2023-08-06T04:13:18;12.70;99.90
16732;DHT22;8484;50.904;9.192;2023-08-06T04:15:46;12.80;99.90
16732;DHT22;8484;50.904;9.192;2023-08-06T04:18:13;12.90;99.90
16732;DHT22;8484;50.904;9.192;2023-08-06T04:20:42;12.90;99.90
16732;DHT22;8484;50.904;9.192;2023-08-06T04:23:10;13.00;99.90
16732;DHT22;8484;50.904;9.192;2023-08-06T04:25:37;13.00;99.90
16732;DHT22;8484;50.904;9.192;2023-08-06T04:28:06;13.00;99.90
16732;DHT22;8484;50.904;9.192;2023-08-06T04:30:33;13.10;99.90
16732;DHT22;8484;50.904;9.192;2023-08-06T04:33:00;13.20;99.90
16732;DHT22;8484;50.904;9.192;2023-08-06T04:35:27;13.30;99.90
16732;DHT22;8484;50.904;9.192;2023-08-06T04:37:54;13.30;99.90
16732;DHT22;8484;50.904;9.192;2023-08-06T04:40:21;13.40;99.90
16732;DHT22;8484;50.904;9.192;2023-08-06T04:42:48;13.40;99.90
16732;DHT22;8484;50.904;9.192;2023-08-06T04:45:16;13.40;99.90
16732;DHT22;8484;50.904;9.192;2023-08-06T04:47:43;13.40;99.90
16732;DHT22;8484;50.904;9.192;2023-08-06T04:50:10;13.50;99.90
16732;DHT22;8484;50.904;9.192;2023-08-06T04:52:37;13.60;99.90
16732;DHT22;8484;50.904;9.192;2023-08-06T04:55:05;13.60;99.90
16732;DHT22;8484;50.904;9.192;2023-08-06T04:57:32;13.60;99.90
16732;DHT22;8484;50.904;9.192;2023-08-06T04:59:59;13.70;99.90
16732;DHT22;8484;50.904;9.192;2023-08-06T05:02:27;13.60;99.90
16732;DHT22;8484;50.904;9.192;2023-08-06T05:04:54;13.60;99.90
16732;DHT22;8484;50.904;9.192;2023-08-06T05:07:21;13.70;99.90
16732;DHT22;8484;50.904;9.192;2023-08-06T05:09:48;13.70;99.90
16732;DHT22;8484;50.904;9.192;2023-08-06T05:12:15;13.70;99.90
16732;DHT22;8484;50.904;9.192;2023-08-06T05:14:42;13.70;99.90
16732;DHT22;8484;50.904;9.192;2023-08-06T05:17:08;13.70;99.90
16732;DHT22;8484;50.904;9.192;2023-08-06T05:19:37;13.90;99.90
16732;DHT22;8484;50.904;9.192;2023-08-06T05:22:04;13.90;99.90
16732;DHT22;8484;50.904;9.192;2023-08-06T05:24:31;13.90;99.90
16732;DHT22;8484;50.904;9.192;2023-08-06T05:26:58;14.00;99.90
16732;DHT22;8484;50.904;9.192;2023-08-06T05:29:25;14.10;99.90
16732;DHT22;8484;50.904;9.192;2023-08-06T05:31:52;14.00;99.90
16732;DHT22;8484;50.904;9.192;2023-08-06T05:34:19;13.90;99.90
16732;DHT22;8484;50.904;9.192;2023-08-06T05:36:47;14.00;99.90
16732;DHT22;8484;50.904;9.192;2023-08-06T05:39:14;14.00;99.90
16732;DHT22;8484;50.904;9.192;2023-08-06T05:41:41;14.00;99.90
16732;DHT22;8484;50.904;9.192;2023-08-06T05:44:08;14.10;99.90
16732;DHT22;8484;50.904;9.192;2023-08-06T05:46:35;14.00;99.90
16732;DHT22;8484;50.904;9.192;2023-08-06T05:49:02;14.00;99.90
16732;DHT22;8484;50.904;9.192;2023-08-06T05:51:27;14.00;99.90
16732;DHT22;8484;50.904;9.192;2023-08-06T05:53:56;14.10;99.90
16732;DHT22;8484;50.904;9.192;2023-08-06T05:56:23;14.10;99.90
16732;DHT22;8484;50.904;9.192;2023-08-06T05:58:50;14.30;99.90
16732;DHT22;8484;50.904;9.192;2023-08-06T06:01:18;14.40;99.90
16732;DHT22;8484;50.904;9.192;2023-08-06T06:03:45;14.50;99.90
16732;DHT22;8484;50.904;9.192;2023-08-06T06:06:12;14.60;99.90
16732;DHT22;8484;50.904;9.192;2023-08-06T06:08:39;14.80;99.90
16732;DHT22;8484;50.904;9.192;2023-08-06T06:11:07;14.80;99.90
16732;DHT22;8484;50.904;9.192;2023-08-06T06:13:34;14.70;99.90
16732;DHT22;8484;50.904;9.192;2023-08-06T06:16:01;14.80;99.90
16732;DHT22;8484;50.904;9.192;2023-08-06T06:18:28;14.90;99.90
16732;DHT22;8484;50.904;9.192;2023-08-06T06:20:55;14.90;99.90
16732;DHT22;8484;50.904;9.192;2023-08-06T06:23:22;15.00;99.90
16732;DHT22;8484;50.904;9.192;2023-08-06T06:25:49;15.20;99.90
16732;DHT22;8484;50.904;9.192;2023-08-06T06:28:18;15.10;99.90
16732;DHT22;8484;50.904;9.192;2023-08-06T06:30:45;15.10;99.90
16732;DHT22;8484;50.904;9.192;2023-08-06T06:33:12;15.10;99.90
16732;DHT22;8484;50.904;9.192;2023-08-06T06:35:39;15.20;99.90
16732;DHT22;8484;50.904;9.192;2023-08-06T06:38:06;15.40;99.90
16732;DHT22;8484;50.904;9.192;2023-08-06T06:40:33;15.60;99.90
16732;DHT22;8484;50.904;9.192;2023-08-06T06:43:00;15.60;99.90
16732;DHT22;8484;50.904;9.192;2023-08-06T06:45:29;15.90;99.90
16732;DHT22;8484;50.904;9.192;2023-08-06T06:47:58;15.90;99.90
16732;DHT22;8484;50.904;9.192;2023-08-06T06:50:24;15.90;99.90
16732;DHT22;8484;50.904;9.192;2023-08-06T06:52:55;15.90;99.90
16732;DHT22;8484;50.904;9.192;2023-08-06T06:55:22;15.90;99.90
16732;DHT22;8484;50.904;9.192;2023-08-06T06:57:48;16.00;99.90
16732;DHT22;8484;50.904;9.192;2023-08-06T07:00:15;16.10;99.90
16732;DHT22;8484;50.904;9.192;2023-08-06T07:02:44;16.10;99.90
16732;DHT22;8484;50.904;9.192;2023-08-06T07:05:10;16.20;99.90
16732;DHT22;8484;50.904;9.192;2023-08-06T07:07:37;16.20;99.90
16732;DHT22;8484;50.904;9.192;2023-08-06T07:10:05;16.30;99.90
16732;DHT22;8484;50.904;9.192;2023-08-06T07:12:32;16.30;99.90
16732;DHT22;8484;50.904;9.192;2023-08-06T07:15:01;16.30;99.90
16732;DHT22;8484;50.904;9.192;2023-08-06T07:17:28;16.30;99.90
16732;DHT22;8484;50.904;9.192;2023-08-06T07:19:56;16.50;99.90
16732;DHT22;8484;50.904;9.192;2023-08-06T07:22:23;16.50;99.90
16732;DHT22;8484;50.904;9.192;2023-08-06T07:24:50;16.50;99.90
16732;DHT22;8484;50.904;9.192;2023-08-06T07:27:17;16.50;99.90
16732;DHT22;8484;50.904;9.192;2023-08-06T07:29:44;16.30;99.90
16732;DHT22;8484;50.904;9.192;2023-08-06T07:32:10;16.40;99.90
16732;DHT22;8484;50.904;9.192;2023-08-06T07:34:37;16.50;99.90
16732;DHT22;8484;50.904;9.192;2023-08-06T07:37:06;16.40;99.90
16732;DHT22;8484;50.904;9.192;2023-08-06T07:39:32;16.40;99.90
16732;DHT22;8484;50.904;9.192;2023-08-06T07:41:59;16.30;99.90
16732;DHT22;8484;50.904;9.192;2023-08-06T07:44:27;16.40;99.90
16732;DHT22;8484;50.904;9.192;2023-08-06T07:46:54;16.50;99.90
16732;DHT22;8484;50.904;9.192;2023-08-06T07:49:21;16.70;99.90
16732;DHT22;8484;50.904;9.192;2023-08-06T07:51:48;16.80;99.90
16732;DHT22;8484;50.904;9.192;2023-08-06T07:54:18;17.30;99.90
16732;DHT22;8484;50.904;9.192;2023-08-06T07:56:45;17.10;99.90
16732;DHT22;8484;50.904;9.192;2023-08-06T07:59:12;17.40;99.90
16732;DHT22;8484;50.904;9.192;2023-08-06T08:01:39;17.40;99.90
16732;DHT22;8484;50.904;9.192;2023-08-06T08:04:05;17.40;99.90
16732;DHT22;8484;50.904;9.192;2023-08-06T08:06:33;17.70;99.90
16732;DHT22;8484;50.904;9.192;2023-08-06T08:09:00;17.40;99.90
16732;DHT22;8484;50.904;9.192;2023-08-06T08:11:28;17.60;99.90
16732;DHT22;8484;50.904;9.192;2023-08-06T08:13:55;17.40;99.90
16732;DHT22;8484;50.904;9.192;2023-08-06T08:16:22;17.50;99.90
16732;DHT22;8484;50.904;9.192;2023-08-06T08:18:50;17.80;99.90
16732;DHT22;8484;50.904;9.192;2023-08-06T08:21:18;17.70;99.90
16732;DHT22;8484;50.904;9.192;2023-08-06T08:23:45;17.60;99.90
16732;DHT22;8484;50.904;9.192;2023-08-06T08:26:12;17.60;99.90
16732;DHT22;8484;50.904;9.192;2023-08-06T08:28:40;17.60;99.90
16732;DHT22;8484;50.904;9.192;2023-08-06T08:31:08;17.80;99.90
16732;DHT22;8484;50.904;9.192;2023-08-06T08:33:35;17.90;99.90
16732;DHT22;8484;50.904;9.192;2023-08-06T08:36:02;17.80;99.90
16732;DHT22;8484;50.904;9.192;2023-08-06T08:38:30;17.90;99.90
16732;DHT22;8484;50.904;9.192;2023-08-06T08:40:59;18.20;99.90
16732;DHT22;8484;50.904;9.192;2023-08-06T08:43:27;18.00;99.90
16732;DHT22;8484;50.904;9.192;2023-08-06T08:45:55;17.50;99.90
16732;DHT22;8484;50.904;9.192;2023-08-06T08:48:25;17.20;99.90
16732;DHT22;8484;50.904;9.192;2023-08-06T08:50:52;16.90;99.90
16732;DHT22;8484;50.904;9.192;2023-08-06T08:53:21;16.90;99.90
16732;DHT22;8484;50.904;9.192;2023-08-06T08:55:49;17.00;99.90
16732;DHT22;8484;50.904;9.192;2023-08-06T08:58:16;17.00;99.90
16732;DHT22;8484;50.904;9.192;2023-08-06T09:00:43;17.10;99.90
16732;DHT22;8484;50.904;9.192;2023-08-06T09:03:13;17.20;99.90
16732;DHT22;8484;50.904;9.192;2023-08-06T09:05:44;17.50;99.90
16732;DHT22;8484;50.904;9.192;2023-08-06T09:08:12;17.80;99.90
16732;DHT22;8484;50.904;9.192;2023-08-06T09:10:43;18.40;99.90
16732;DHT22;8484;50.904;9.192;2023-08-06T09:13:10;19.30;99.90
16732;DHT22;8484;50.904;9.192;2023-08-06T09:15:38;19.30;99.90
16732;DHT22;8484;50.904;9.192;2023-08-06T09:18:09;19.50;99.90
16732;DHT22;8484;50.904;9.192;2023-08-06T09:20:39;20.00;99.90
16732;DHT22;8484;50.904;9.192;2023-08-06T09:23:09;20.20;99.90
16732;DHT22;8484;50.904;9.192;2023-08-06T09:25:38;20.30;99.90
16732;DHT22;8484;50.904;9.192;2023-08-06T09:28:06;20.00;99.90
16732;DHT22;8484;50.904;9.192;2023-08-06T09:30:35;19.70;99.90
16732;DHT22;8484;50.904;9.192;2023-08-06T09:33:03;19.00;99.90
16732;DHT22;8484;50.904;9.192;2023-08-06T09:35:30;18.90;99.90
16732;DHT22;8484;50.904;9.192;2023-08-06T09:38:07;19.20;99.90
16732;DHT22;8484;50.904;9.192;2023-08-06T09:40:36;19.80;99.90
16732;DHT22;8484;50.904;9.192;2023-08-06T09:43:03;20.40;99.90
16732;DHT22;8484;50.904;9.192;2023-08-06T09:45:31;21.00;99.90
16732;DHT22;8484;50.904;9.192;2023-08-06T09:47:59;21.00;99.90
16732;DHT22;8484;50.904;9.192;2023-08-06T09:50:30;20.40;99.90
16732;DHT22;8484;50.904;9.192;2023-08-06T09:52:57;19.50;99.90
16732;DHT22;8484;50.904;9.192;2023-08-06T09:55:26;19.60;99.90
16732;DHT22;8484;50.904;9.192;2023-08-06T09:57:54;20.20;99.90
16732;DHT22;8484;50.904;9.192;2023-08-06T10:00:21;20.70;99.90
16732;DHT22;8484;50.904;9.192;2023-08-06T10:02:49;21.60;99.90
16732;DHT22;8484;50.904;9.192;2023-08-06T10:05:21;22.30;99.90
16732;DHT22;8484;50.904;9.192;2023-08-06T10:07:49;21.40;99.90
16732;DHT22;8484;50.904;9.192;2023-08-06T10:10:16;20.80;99.90
16732;DHT22;8484;50.904;9.192;2023-08-06T10:12:49;21.20;99.90
16732;DHT22;8484;50.904;9.192;2023-08-06T10:15:20;20.30;99.90
16732;DHT22;8484;50.904;9.192;2023-08-06T10:17:51;20.40;99.90
16732;DHT22;8484;50.904;9.192;2023-08-06T10:20:18;20.00;99.90
16732;DHT22;8484;50.904;9.192;2023-08-06T10:22:59;19.40;99.90
16732;DHT22;8484;50.904;9.192;2023-08-06T10:25:31;19.00;99.90
16732;DHT22;8484;50.904;9.192;2023-08-06T10:28:00;18.80;99.90
16732;DHT22;8484;50.904;9.192;2023-08-06T10:30:28;18.40;99.90
16732;DHT22;8484;50.904;9.192;2023-08-06T10:32:57;18.10;99.90
16732;DHT22;8484;50.904;9.192;2023-08-06T10:35:36;18.10;99.90
16732;DHT22;8484;50.904;9.192;2023-08-06T10:38:05;18.40;99.90
16732;DHT22;8484;50.904;9.192;2023-08-06T10:40:33;18.10;99.90
16732;DHT22;8484;50.904;9.192;2023-08-06T10:43:03;18.90;99.90
16732;DHT22;8484;50.904;9.192;2023-08-06T10:45:34;19.50;99.90
16732;DHT22;8484;50.904;9.192;2023-08-06T10:48:02;19.80;99.90
16732;DHT22;8484;50.904;9.192;2023-08-06T10:50:29;19.50;99.90
16732;DHT22;8484;50.904;9.192;2023-08-06T10:52:57;21.00;99.90
16732;DHT22;8484;50.904;9.192;2023-08-06T10:55:25;21.40;99.90
16732;DHT22;8484;50.904;9.192;2023-08-06T10:57:53;20.40;99.90
16732;DHT22;8484;50.904;9.192;2023-08-06T11:00:22;20.70;99.90
16732;DHT22;8484;50.904;9.192;2023-08-06T11:02:49;20.90;99.90
16732;DHT22;8484;50.904;9.192;2023-08-06T11:05:17;21.50;99.90
16732;DHT22;8484;50.904;9.192;2023-08-06T11:07:44;21.70;99.90
16732;DHT22;8484;50.904;9.192;2023-08-06T11:10:12;22.20;99.90
16732;DHT22;8484;50.904;9.192;2023-08-06T11:12:40;22.40;99.90
16732;DHT22;8484;50.904;9.192;2023-08-06T11:15:08;22.60;99.90
16732;DHT22;8484;50.904;9.192;2023-08-06T11:17:39;22.70;99.90
16732;DHT22;8484;50.904;9.192;2023-08-06T11:20:08;22.60;99.90
16732;DHT22;8484;50.904;9.192;2023-08-06T11:22:36;23.20;99.90
16732;DHT22;8484;50.904;9.192;2023-08-06T11:25:03;22.90;99.90
16732;DHT22;8484;50.904;9.192;2023-08-06T11:27:31;23.00;99.90
16732;DHT22;8484;50.904;9.192;2023-08-06T11:29:59;22.60;99.90
16732;DHT22;8484;50.904;9.192;2023-08-06T11:32:26;22.20;99.90
16732;DHT22;8484;50.904;9.192;2023-08-06T11:34:55;22.60;99.90
16732;DHT22;8484;50.904;9.192;2023-08-06T11:37:22;23.10;99.90
16732;DHT22;8484;50.904;9.192;2023-08-06T11:39:51;23.60;99.90
16732;DHT22;8484;50.904;9.192;2023-08-06T11:42:18;23.90;99.90
16732;DHT22;8484;50.904;9.192;2023-08-06T11:44:45;23.00;99.90
16732;DHT22;8484;50.904;9.192;2023-08-06T11:47:14;23.40;99.90
16732;DHT22;8484;50.904;9.192;2023-08-06T11:49:43;23.90;99.90
16732;DHT22;8484;50.904;9.192;2023-08-06T11:52:16;24.10;99.90
16732;DHT22;8484;50.904;9.192;2023-08-06T11:54:45;24.40;99.90
16732;DHT22;8484;50.904;9.192;2023-08-06T11:57:13;22.90;99.90
16732;DHT22;8484;50.904;9.192;2023-08-06T11:59:40;23.30;99.90
16732;DHT22;8484;50.904;9.192;2023-08-06T12:02:10;22.60;99.90
16732;DHT22;8484;50.904;9.192;2023-08-06T12:05:03;22.30;99.90
16732;DHT22;8484;50.904;9.192;2023-08-06T12:07:33;22.90;99.90
16732;DHT22;8484;50.904;9.192;2023-08-06T12:10:03;21.90;99.90
16732;DHT22;8484;50.904;9.192;2023-08-06T12:12:31;21.50;99.90
16732;DHT22;8484;50.904;9.192;2023-08-06T12:14:58;21.20;99.90
16732;DHT22;8484;50.904;9.192;2023-08-06T12:17:25;21.10;99.90
16732;DHT22;8484;50.904;9.192;2023-08-06T12:19:52;20.50;99.90
16732;DHT22;8484;50.904;9.192;2023-08-06T12:22:19;20.10;99.90
16732;DHT22;8484;50.904;9.192;2023-08-06T12:24:47;20.10;99.90
16732;DHT22;8484;50.904;9.192;2023-08-06T12:27:14;20.40;99.90
16732;DHT22;8484;50.904;9.192;2023-08-06T12:29:42;20.20;99.90
16732;DHT22;8484;50.904;9.192;2023-08-06T12:32:10;20.20;99.90
16732;DHT22;8484;50.904;9.192;2023-08-06T12:34:38;19.70;99.90
16732;DHT22;8484;50.904;9.192;2023-08-06T12:37:05;18.80;99.90
16732;DHT22;8484;50.904;9.192;2023-08-06T12:39:32;18.70;99.90
16732;DHT22;8484;50.904;9.192;2023-08-06T12:42:00;18.60;99.90
16732;DHT22;8484;50.904;9.192;2023-08-06T12:44:27;18.20;99.90
16732;DHT22;8484;50.904;9.192;2023-08-06T12:46:55;18.50;99.90
16732;DHT22;8484;50.904;9.192;2023-08-06T12:49:23;18.20;99.90
16732;DHT22;8484;50.904;9.192;2023-08-06T12:51:50;18.50;99.90
16732;DHT22;8484;50.904;9.192;2023-08-06T12:54:18;18.00;99.90
16732;DHT22;8484;50.904;9.192;2023-08-06T12:56:45;18.60;99.90
16732;DHT22;8484;50.904;9.192;2023-08-06T12:59:14;18.70;99.90
16732;DHT22;8484;50.904;9.192;2023-08-06T13:01:42;18.90;99.90
16732;DHT22;8484;50.904;9.192;2023-08-06T13:04:09;19.00;99.90
16732;DHT22;8484;50.904;9.192;2023-08-06T13:06:36;19.60;99.90
16732;DHT22;8484;50.904;9.192;2023-08-06T13:09:04;19.80;99.90
16732;DHT22;8484;50.904;9.192;2023-08-06T13:11:33;19.80;99.90
16732;DHT22;8484;50.904;9.192;2023-08-06T13:14:05;20.50;99.90
16732;DHT22;8484;50.904;9.192;2023-08-06T13:16:33;20.20;99.90
16732;DHT22;8484;50.904;9.192;2023-08-06T13:19:00;19.60;99.90
16732;DHT22;8484;50.904;9.192;2023-08-06T13:21:33;19.80;99.90
16732;DHT22;8484;50.904;9.192;2023-08-06T13:24:00;19.80;99.90
16732;DHT22;8484;50.904;9.192;2023-08-06T13:26:28;20.10;99.90
16732;DHT22;8484;50.904;9.192;2023-08-06T13:28:56;20.70;99.90
16732;DHT22;8484;50.904;9.192;2023-08-06T13:31:23;21.20;99.90
16732;DHT22;8484;50.904;9.192;2023-08-06T13:33:51;22.20;99.90
16732;DHT22;8484;50.904;9.192;2023-08-06T13:36:21;22.40;99.90
16732;DHT22;8484;50.904;9.192;2023-08-06T13:38:48;21.90;99.90
16732;DHT22;8484;50.904;9.192;2023-08-06T13:41:15;22.20;99.90
16732;DHT22;8484;50.904;9.192;2023-08-06T13:43:42;22.50;99.90
16732;DHT22;8484;50.904;9.192;2023-08-06T13:46:10;22.70;99.90
16732;DHT22;8484;50.904;9.192;2023-08-06T13:48:41;22.40;99.90
16732;DHT22;8484;50.904;9.192;2023-08-06T13:51:09;22.80;99.90
16732;DHT22;8484;50.904;9.192;2023-08-06T13:53:36;22.70;99.90
16732;DHT22;8484;50.904;9.192;2023-08-06T13:56:04;22.70;99.90
16732;DHT22;8484;50.904;9.192;2023-08-06T13:58:31;21.50;99.90
16732;DHT22;8484;50.904;9.192;2023-08-06T14:00:58;20.70;99.90
16732;DHT22;8484;50.904;9.192;2023-08-06T14:03:25;19.90;99.90
16732;DHT22;8484;50.904;9.192;2023-08-06T14:05:53;19.10;99.90
16732;DHT22;8484;50.904;9.192;2023-08-06T14:08:23;19.00;99.90
16732;DHT22;8484;50.904;9.192;2023-08-06T14:10:50;18.40;99.90
16732;DHT22;8484;50.904;9.192;2023-08-06T14:13:20;18.40;99.90
16732;DHT22;8484;50.904;9.192;2023-08-06T14:15:47;18.00;99.90
16732;DHT22;8484;50.904;9.192;2023-08-06T14:18:14;17.60;99.90
16732;DHT22;8484;50.904;9.192;2023-08-06T14:20:41;17.30;99.90
16732;DHT22;8484;50.904;9.192;2023-08-06T14:23:09;17.10;99.90
16732;DHT22;8484;50.904;9.192;2023-08-06T14:25:38;16.80;99.90
16732;DHT22;8484;50.904;9.192;2023-08-06T14:28:05;17.00;99.90
16732;DHT22;8484;50.904;9.192;2023-08-06T14:30:32;16.80;99.90
16732;DHT22;8484;50.904;9.192;2023-08-06T14:32:59;16.70;99.90
16732;DHT22;8484;50.904;9.192;2023-08-06T14:35:28;16.30;99.90
16732;DHT22;8484;50.904;9.192;2023-08-06T14:37:55;16.20;99.90
16732;DHT22;8484;50.904;9.192;2023-08-06T14:40:21;16.30;99.90
16732;DHT22;8484;50.904;9.192;2023-08-06T14:42:50;16.00;99.90
16732;DHT22;8484;50.904;9.192;2023-08-06T14:45:17;15.80;99.90
16732;DHT22;8484;50.904;9.192;2023-08-06T14:47:43;15.80;99.90
16732;DHT22;8484;50.904;9.192;2023-08-06T14:50:10;15.50;99.90
16732;DHT22;8484;50.904;9.192;2023-08-06T14:52:37;15.60;99.90
16732;DHT22;8484;50.904;9.192;2023-08-06T14:55:05;15.60;99.90
16732;DHT22;8484;50.904;9.192;2023-08-06T14:57:32;15.40;99.90
16732;DHT22;8484;50.904;9.192;2023-08-06T15:00:00;15.30;99.90
16732;DHT22;8484;50.904;9.192;2023-08-06T15:02:27;15.20;99.90
16732;DHT22;8484;50.904;9.192;2023-08-06T15:04:54;15.30;99.90
16732;DHT22;8484;50.904;9.192;2023-08-06T15:07:21;15.40;99.90
16732;DHT22;8484;50.904;9.192;2023-08-06T15:09:48;15.40;99.90
16732;DHT22;8484;50.904;9.192;2023-08-06T15:12:15;15.20;99.90
16732;DHT22;8484;50.904;9.192;2023-08-06T15:14:43;15.20;99.90
16732;DHT22;8484;50.904;9.192;2023-08-06T15:17:11;15.40;99.90
16732;DHT22;8484;50.904;9.192;2023-08-06T15:19:38;15.40;99.90
16732;DHT22;8484;50.904;9.192;2023-08-06T15:22:05;15.40;99.90
16732;DHT22;8484;50.904;9.192;2023-08-06T15:24:32;15.40;99.90
16732;DHT22;8484;50.904;9.192;2023-08-06T15:26:59;15.40;99.90
16732;DHT22;8484;50.904;9.192;2023-08-06T15:29:26;15.30;99.90
16732;DHT22;8484;50.904;9.192;2023-08-06T15:31:53;15.30;99.90
16732;DHT22;8484;50.904;9.192;2023-08-06T15:34:21;15.30;99.90
16732;DHT22;8484;50.904;9.192;2023-08-06T15:36:48;15.50;99.90
16732;DHT22;8484;50.904;9.192;2023-08-06T15:39:15;15.50;99.90
16732;DHT22;8484;50.904;9.192;2023-08-06T15:41:42;15.50;99.90
16732;DHT22;8484;50.904;9.192;2023-08-06T15:44:09;15.20;99.90
16732;DHT22;8484;50.904;9.192;2023-08-06T15:46:36;15.20;99.90
16732;DHT22;8484;50.904;9.192;2023-08-06T15:49:02;15.20;99.90